createdAt,value
2017-10-11T00:01:17.032Z,82.70
2017-10-11T00:03:43.520Z,82.60
2017-10-11T00:06:09.954Z,82.20
2017-10-11T00:08:36.789Z,82.30
2017-10-11T00:11:03.593Z,81.90
2017-10-11T00:13:31.143Z,82.10
2017-10-11T00:15:58.784Z,82.00
2017-10-11T00:18:25.550Z,82.00
2017-10-11T00:20:53.042Z,82.00
2017-10-11T00:23:19.875Z,82.40
2017-10-11T00:25:47.891Z,82.20
2017-10-11T00:28:14.099Z,82.20
2017-10-11T00:30:40.342Z,82.10
2017-10-11T00:33:06.884Z,81.90
2017-10-11T00:35:33.901Z,81.80
2017-10-11T00:38:00.120Z,81.70
2017-10-11T00:40:27.066Z,81.90
2017-10-11T00:42:54.114Z,82.10
2017-10-11T00:45:20.917Z,82.00
2017-10-11T00:47:48.204Z,82.30
2017-10-11T00:50:15.774Z,81.80
2017-10-11T00:52:42.392Z,81.70
2017-10-11T00:55:10.077Z,81.90
2017-10-11T00:57:37.027Z,81.80
2017-10-11T01:00:04.584Z,81.90
2017-10-11T01:02:32.232Z,82.00
2017-10-11T01:04:59.760Z,81.90
2017-10-11T01:07:27.270Z,82.60
2017-10-11T01:09:54.789Z,82.50
2017-10-11T01:12:21.017Z,83.10
2017-10-11T01:14:47.269Z,82.40
2017-10-11T01:17:13.549Z,82.40
2017-10-11T01:19:40.264Z,82.30
2017-10-11T01:22:08.145Z,82.00
2017-10-11T01:24:35.167Z,82.00
2017-10-11T01:27:01.940Z,81.90
2017-10-11T01:29:29.005Z,82.40
2017-10-11T01:31:56.056Z,82.80
2017-10-11T01:34:23.856Z,82.60
2017-10-11T01:36:51.003Z,82.50
2017-10-11T01:39:17.816Z,82.50
2017-10-11T01:41:45.512Z,82.10
2017-10-11T01:44:13.235Z,82.40
2017-10-11T01:46:40.622Z,82.30
2017-10-11T01:49:07.153Z,82.30
2017-10-11T01:51:34.287Z,82.00
2017-10-11T01:54:01.827Z,82.00
2017-10-11T01:56:29.047Z,82.10
2017-10-11T01:58:56.580Z,82.00
2017-10-11T02:01:22.995Z,82.00
2017-10-11T02:03:50.409Z,82.30
2017-10-11T02:06:17.468Z,82.00
2017-10-11T02:08:45.068Z,82.20
2017-10-11T02:11:11.389Z,82.00
2017-10-11T02:13:37.734Z,83.10
2017-10-11T02:16:04.507Z,83.50
2017-10-11T02:18:31.726Z,83.70
2017-10-11T02:20:58.957Z,83.50
2017-10-11T02:23:25.908Z,83.70
2017-10-11T02:25:52.842Z,84.10
2017-10-11T02:28:20.916Z,84.20
2017-10-11T02:30:48.125Z,84.10
2017-10-11T02:33:14.396Z,83.90
2017-10-11T02:35:41.148Z,83.40
2017-10-11T02:38:07.548Z,83.10
2017-10-11T02:40:35.594Z,83.90
2017-10-11T02:43:02.344Z,83.80
2017-10-11T02:45:28.940Z,83.50
2017-10-11T02:47:55.649Z,83.50
2017-10-11T02:50:22.698Z,82.90
2017-10-11T02:52:48.931Z,82.90
2017-10-11T02:55:15.732Z,83.50
2017-10-11T02:57:42.499Z,83.40
2017-10-11T03:00:09.462Z,83.70
2017-10-11T03:02:36.582Z,83.60
2017-10-11T03:05:02.966Z,83.60
2017-10-11T03:07:30.296Z,83.40
2017-10-11T03:09:56.520Z,82.90
2017-10-11T03:12:23.744Z,82.60
2017-10-11T03:14:51.589Z,82.90
2017-10-11T03:17:19.704Z,83.70
2017-10-11T03:19:45.934Z,83.70
2017-10-11T03:22:12.728Z,84.10
2017-10-11T03:24:40.665Z,83.50
2017-10-11T03:27:07.481Z,83.50
2017-10-11T03:29:33.675Z,83.30
2017-10-11T03:32:00.263Z,83.20
2017-10-11T03:34:27.348Z,84.00
2017-10-11T03:36:54.571Z,84.00
2017-10-11T03:39:21.189Z,84.30
2017-10-11T03:41:47.475Z,84.10
2017-10-11T03:44:13.903Z,84.00
2017-10-11T03:46:40.864Z,83.90
2017-10-11T03:49:08.437Z,83.70
2017-10-11T03:51:37.436Z,83.10
2017-10-11T03:54:03.635Z,83.10
2017-10-11T03:56:29.931Z,82.80
2017-10-11T03:58:57.189Z,82.80
2017-10-11T04:01:23.390Z,82.50
2017-10-11T04:03:50.140Z,82.60
2017-10-11T04:06:16.586Z,82.80
2017-10-11T04:08:44.626Z,83.10
2017-10-11T04:11:11.417Z,83.10
2017-10-11T04:13:37.624Z,83.10
2017-10-11T04:16:04.473Z,83.00
2017-10-11T04:18:31.394Z,83.50
2017-10-11T04:20:58.530Z,83.80
2017-10-11T04:23:25.599Z,84.00
2017-10-11T04:25:52.328Z,84.00
2017-10-11T04:28:19.230Z,83.70
2017-10-11T04:30:46.217Z,83.90
2017-10-11T04:33:13.198Z,83.60
2017-10-11T04:35:40.147Z,84.10
2017-10-11T04:38:06.421Z,83.70
2017-10-11T04:40:33.102Z,84.10
2017-10-11T04:43:00.018Z,84.00
2017-10-11T04:45:27.424Z,84.20
2017-10-11T04:47:54.846Z,83.70
2017-10-11T04:50:22.604Z,83.90
2017-10-11T04:52:48.833Z,83.90
2017-10-11T04:55:15.069Z,83.70
2017-10-11T04:57:41.900Z,83.90
2017-10-11T05:00:08.158Z,84.00
2017-10-11T05:02:34.973Z,83.90
2017-10-11T05:05:02.951Z,83.70
2017-10-11T05:07:29.204Z,83.50
2017-10-11T05:09:56.214Z,83.70
2017-10-11T05:12:23.024Z,83.70
2017-10-11T05:14:49.229Z,83.40
2017-10-11T05:17:16.261Z,83.70
2017-10-11T05:19:43.137Z,83.60
2017-10-11T05:22:10.228Z,83.60
2017-10-11T05:24:36.487Z,83.20
2017-10-11T05:27:03.900Z,83.20
2017-10-11T05:29:30.117Z,83.40
2017-10-11T05:31:56.327Z,83.20
2017-10-11T05:34:22.543Z,82.80
2017-10-11T05:36:48.766Z,82.90
2017-10-11T05:39:15.636Z,83.00
2017-10-11T05:41:42.506Z,82.90
2017-10-11T05:44:09.967Z,82.60
2017-10-11T05:46:36.862Z,82.40
2017-10-11T05:49:03.127Z,82.50
2017-10-11T05:51:29.473Z,83.10
2017-10-11T05:53:56.392Z,83.30
2017-10-11T05:56:23.492Z,83.30
2017-10-11T05:58:50.620Z,83.70
2017-10-11T06:01:19.521Z,83.50
2017-10-11T06:03:47.192Z,83.50
2017-10-11T06:06:14.164Z,83.50
2017-10-11T06:08:41.368Z,83.90
2017-10-11T06:11:07.649Z,83.40
2017-10-11T06:13:35.719Z,83.20
2017-10-11T06:16:03.323Z,83.60
2017-10-11T06:18:30.125Z,83.40
2017-10-11T06:20:56.907Z,83.30
2017-10-11T06:23:23.725Z,83.10
2017-10-11T06:25:50.126Z,82.90
2017-10-11T06:28:17.785Z,83.20
2017-10-11T06:30:44.385Z,83.20
2017-10-11T06:33:10.725Z,83.00
2017-10-11T06:35:36.941Z,83.20
2017-10-11T06:38:03.447Z,83.20
2017-10-11T06:40:31.472Z,83.50
2017-10-11T06:42:58.828Z,83.90
2017-10-11T06:45:25.829Z,84.10
2017-10-11T06:47:52.160Z,84.10
2017-10-11T06:50:18.450Z,84.30
2017-10-11T06:52:45.917Z,84.50
2017-10-11T06:55:12.184Z,84.50
2017-10-11T06:57:38.577Z,84.30
2017-10-11T07:00:05.632Z,84.30
2017-10-11T07:02:32.535Z,84.20
2017-10-11T07:05:00.323Z,84.00
2017-10-11T07:07:28.054Z,83.80
2017-10-11T07:09:54.537Z,83.80
2017-10-11T07:12:20.829Z,84.00
2017-10-11T07:14:48.662Z,83.70
2017-10-11T07:17:14.876Z,83.60
2017-10-11T07:19:41.113Z,83.10
2017-10-11T07:22:07.756Z,83.10
2017-10-11T07:24:34.256Z,83.40
2017-10-11T07:27:01.776Z,83.60
2017-10-11T07:29:28.013Z,83.70
2017-10-11T07:31:55.147Z,83.70
2017-10-11T07:34:22.801Z,83.80
2017-10-11T07:36:49.570Z,83.80
2017-10-11T07:39:16.137Z,84.00
2017-10-11T07:41:43.476Z,83.80
2017-10-11T07:44:10.736Z,83.90
2017-10-11T07:46:37.314Z,83.90
2017-10-11T07:49:05.499Z,83.70
2017-10-11T07:51:32.478Z,83.20
2017-10-11T07:53:59.365Z,83.20
2017-10-11T07:56:25.699Z,83.50
2017-10-11T07:58:51.921Z,83.10
2017-10-11T08:01:18.164Z,82.90
2017-10-11T08:03:44.587Z,83.00
2017-10-11T08:06:12.251Z,82.90
2017-10-11T08:08:39.383Z,82.80
2017-10-11T08:11:06.309Z,82.50
2017-10-11T08:13:34.055Z,82.80
2017-10-11T08:16:00.408Z,83.00
2017-10-11T08:18:26.845Z,82.80
2017-10-11T08:20:53.729Z,82.60
2017-10-11T08:23:19.998Z,82.30
2017-10-11T08:25:46.233Z,81.40
2017-10-11T08:28:12.615Z,80.30
2017-10-11T08:30:39.603Z,78.30
2017-10-11T08:33:05.830Z,78.30
2017-10-11T08:35:33.104Z,79.30
2017-10-11T08:37:59.318Z,78.60
2017-10-11T08:40:25.551Z,79.20
2017-10-11T08:42:53.356Z,79.10
2017-10-11T08:45:20.339Z,78.40
2017-10-11T08:47:46.834Z,77.70
2017-10-11T08:50:13.810Z,77.80
2017-10-11T08:52:40.054Z,77.60
2017-10-11T08:55:07.506Z,77.80
2017-10-11T08:57:33.752Z,77.60
2017-10-11T09:00:00.532Z,76.60
2017-10-11T09:02:27.466Z,77.00
2017-10-11T09:04:55.242Z,78.40
2017-10-11T09:07:21.883Z,78.40
2017-10-11T09:09:48.878Z,78.20
2017-10-11T09:12:15.619Z,78.20
2017-10-11T09:14:41.838Z,77.30
2017-10-11T09:17:08.061Z,74.90
2017-10-11T09:19:34.289Z,74.30
2017-10-11T09:22:00.880Z,75.50
2017-10-11T09:24:27.871Z,76.90
2017-10-11T09:26:54.099Z,76.80
2017-10-11T09:29:21.100Z,75.20
2017-10-11T09:31:48.629Z,75.20
2017-10-11T09:34:14.848Z,75.20
2017-10-11T09:36:41.069Z,75.40
2017-10-11T09:39:07.934Z,75.00
2017-10-11T09:41:34.157Z,76.60
2017-10-11T09:44:00.390Z,76.10
2017-10-11T09:46:26.600Z,76.70
2017-10-11T09:48:54.334Z,74.80
2017-10-11T09:51:21.848Z,72.70
2017-10-11T09:53:48.589Z,72.70
2017-10-11T09:56:15.359Z,73.40
2017-10-11T09:58:42.427Z,70.30
2017-10-11T10:01:09.193Z,70.20
2017-10-11T10:03:36.233Z,72.10
2017-10-11T10:06:03.133Z,69.30
2017-10-11T10:08:30.216Z,70.30
2017-10-11T10:10:56.768Z,69.70
2017-10-11T10:13:23.704Z,69.20
2017-10-11T10:15:50.922Z,68.50
2017-10-11T10:18:17.847Z,73.00
2017-10-11T10:20:44.075Z,72.90
2017-10-11T10:23:10.392Z,71.50
2017-10-11T10:25:36.679Z,69.60
2017-10-11T10:28:03.450Z,70.30
2017-10-11T10:30:38.303Z,69.70
2017-10-11T10:33:05.230Z,69.60
2017-10-11T10:35:33.640Z,70.60
2017-10-11T10:38:01.255Z,70.90
2017-10-11T10:40:27.985Z,70.80
2017-10-11T10:42:55.633Z,67.90
2017-10-11T10:45:23.078Z,67.80
2017-10-11T10:47:50.284Z,67.70
2017-10-11T10:50:16.535Z,68.10
2017-10-11T10:52:44.081Z,68.00
2017-10-11T10:55:10.799Z,68.10
2017-10-11T10:57:37.126Z,68.10
2017-10-11T11:00:03.884Z,67.60
2017-10-11T11:02:30.250Z,69.00
2017-10-11T11:04:58.627Z,65.80
2017-10-11T11:07:25.835Z,68.20
2017-10-11T11:09:53.168Z,67.80
2017-10-11T11:12:20.866Z,68.70
2017-10-11T11:14:47.348Z,68.70
2017-10-11T11:17:17.459Z,65.10
2017-10-11T11:19:43.695Z,65.00
2017-10-11T11:22:10.209Z,65.90
2017-10-11T11:24:37.435Z,67.50
2017-10-11T11:27:04.763Z,65.80
2017-10-11T11:29:31.353Z,65.80
2017-10-11T11:31:58.528Z,63.00
2017-10-11T11:34:25.868Z,64.90
2017-10-11T11:36:52.501Z,65.00
2017-10-11T11:39:20.544Z,63.90
2017-10-11T11:41:47.593Z,63.70
2017-10-11T11:44:15.505Z,62.40
2017-10-11T11:46:42.520Z,60.80
2017-10-11T11:49:09.490Z,59.00
2017-10-11T11:51:35.927Z,58.90
2017-10-11T11:54:02.660Z,60.40
2017-10-11T11:56:31.400Z,62.30
2017-10-11T11:58:58.234Z,62.20
2017-10-11T12:01:25.249Z,62.40
2017-10-11T12:03:51.999Z,60.90
2017-10-11T12:06:18.683Z,61.30
2017-10-11T12:08:45.767Z,60.20
2017-10-11T12:11:12.912Z,60.10
2017-10-11T12:13:39.920Z,60.80
2017-10-11T12:16:07.342Z,61.50
2017-10-11T12:18:35.266Z,58.70
2017-10-11T12:21:01.481Z,58.70
2017-10-11T12:23:28.432Z,57.00
2017-10-11T12:25:54.848Z,57.00
2017-10-11T12:28:21.877Z,59.30
2017-10-11T12:30:48.080Z,59.20
2017-10-11T12:33:15.647Z,59.50
2017-10-11T12:35:42.439Z,58.30
2017-10-11T12:38:08.671Z,59.60
2017-10-11T12:40:34.877Z,60.00
2017-10-11T12:43:02.387Z,61.60
2017-10-11T12:45:29.450Z,61.60
2017-10-11T12:47:55.716Z,60.60
2017-10-11T12:50:22.680Z,60.40
2017-10-11T12:52:50.050Z,60.40
2017-10-11T12:55:17.222Z,57.90
2017-10-11T12:57:43.853Z,57.80
2017-10-11T13:00:11.002Z,56.90
2017-10-11T13:02:38.638Z,56.90
2017-10-11T13:05:05.185Z,57.40
2017-10-11T13:07:31.829Z,58.80
2017-10-11T13:09:59.457Z,58.70
2017-10-11T13:12:26.425Z,58.90
2017-10-11T13:14:53.330Z,58.90
2017-10-11T13:17:20.315Z,61.10
2017-10-11T13:19:46.537Z,60.40
2017-10-11T13:22:12.953Z,60.00
2017-10-11T13:24:40.221Z,60.60
2017-10-11T13:27:07.584Z,60.90
2017-10-11T13:29:33.803Z,60.90
2017-10-11T13:32:01.014Z,60.50
2017-10-11T13:34:27.341Z,60.90
2017-10-11T13:36:53.650Z,59.90
2017-10-11T13:39:20.210Z,59.30
2017-10-11T13:41:47.734Z,59.90
2017-10-11T13:44:14.354Z,59.80
2017-10-11T13:46:41.187Z,60.30
2017-10-11T13:49:07.421Z,60.30
2017-10-11T13:51:33.612Z,59.70
2017-10-11T13:54:00.684Z,58.90
2017-10-11T13:56:27.485Z,58.90
2017-10-11T13:58:53.978Z,59.30
2017-10-11T14:01:20.245Z,59.00
2017-10-11T14:03:54.489Z,58.30
2017-10-11T14:06:21.738Z,57.40
2017-10-11T14:08:48.205Z,57.50
2017-10-11T14:11:14.461Z,57.30
2017-10-11T14:13:41.388Z,56.90
2017-10-11T14:16:08.488Z,58.00
2017-10-11T14:18:35.476Z,56.60
2017-10-11T14:21:02.753Z,56.50
2017-10-11T14:23:29.245Z,57.60
2017-10-11T14:25:56.815Z,56.70
2017-10-11T14:28:23.107Z,56.70
2017-10-11T14:30:51.118Z,56.60
2017-10-11T14:33:17.509Z,56.50
2017-10-11T14:35:43.744Z,56.80
2017-10-11T14:38:11.363Z,56.80
2017-10-11T14:40:37.853Z,56.90
2017-10-11T14:43:04.957Z,58.20
2017-10-11T14:45:31.991Z,58.20
2017-10-11T14:47:58.925Z,57.80
2017-10-11T14:50:26.071Z,58.90
2017-10-11T14:52:52.305Z,58.90
2017-10-11T14:55:19.322Z,58.50
2017-10-11T14:57:47.503Z,58.30
2017-10-11T15:00:13.769Z,58.30
2017-10-11T15:02:40.989Z,57.90
2017-10-11T15:05:08.137Z,57.70
2017-10-11T15:07:34.948Z,57.80
2017-10-11T15:10:02.973Z,57.40
2017-10-11T15:12:29.220Z,57.40
2017-10-11T15:14:56.220Z,57.70
2017-10-11T15:17:22.461Z,57.90
2017-10-11T15:19:48.871Z,58.00
2017-10-11T15:22:15.247Z,58.40
2017-10-11T15:24:42.372Z,59.20
2017-10-11T15:27:08.640Z,59.20
2017-10-11T15:29:35.410Z,59.20
2017-10-11T15:32:03.436Z,59.70
2017-10-11T15:34:30.082Z,60.10
2017-10-11T15:36:57.129Z,60.60
2017-10-11T15:39:23.411Z,60.60
2017-10-11T15:41:49.721Z,60.90
2017-10-11T15:44:16.487Z,61.10
2017-10-11T15:46:42.709Z,61.30
2017-10-11T15:49:09.346Z,61.50
2017-10-11T15:51:36.191Z,61.70
2017-10-11T15:54:02.512Z,62.10
2017-10-11T15:56:29.209Z,61.70
2017-10-11T15:58:56.284Z,63.10
2017-10-11T16:01:22.805Z,63.00
2017-10-11T16:03:49.903Z,65.00
2017-10-11T16:06:16.724Z,65.00
2017-10-11T16:08:44.060Z,64.90
2017-10-11T16:11:10.741Z,64.40
2017-10-11T16:13:37.167Z,65.90
2017-10-11T16:16:04.577Z,66.00
2017-10-11T16:18:31.623Z,66.40
2017-10-11T16:20:59.118Z,66.10
2017-10-11T16:23:26.157Z,67.00
2017-10-11T16:25:52.373Z,67.00
2017-10-11T16:28:18.840Z,67.00
2017-10-11T16:30:45.871Z,69.30
2017-10-11T16:33:12.760Z,69.30
2017-10-11T16:35:39.029Z,69.10
2017-10-11T16:38:05.846Z,68.80
2017-10-11T16:40:32.958Z,70.40
2017-10-11T16:42:59.360Z,70.40
2017-10-11T16:45:26.828Z,70.00
2017-10-11T16:47:55.214Z,68.40
2017-10-11T16:50:21.472Z,67.80
2017-10-11T16:52:48.449Z,69.80
2017-10-11T16:55:15.488Z,71.00
2017-10-11T16:57:42.384Z,70.90
2017-10-11T17:00:09.034Z,71.30
2017-10-11T17:02:36.088Z,70.40
2017-10-11T17:05:02.311Z,70.40
2017-10-11T17:07:28.887Z,69.40
2017-10-11T17:09:57.377Z,72.60
2017-10-11T17:12:24.213Z,72.60
2017-10-11T17:14:50.926Z,71.80
2017-10-11T17:17:18.104Z,73.10
2017-10-11T17:19:45.883Z,73.60
2017-10-11T17:22:12.489Z,73.70
2017-10-11T17:24:38.826Z,72.70
2017-10-11T17:27:06.064Z,72.80
2017-10-11T17:29:33.682Z,73.60
2017-10-11T17:32:00.527Z,73.60
2017-10-11T17:34:27.276Z,73.10
2017-10-11T17:36:53.968Z,73.00
2017-10-11T17:39:20.599Z,73.20
2017-10-11T17:41:48.348Z,73.60
2017-10-11T17:44:15.814Z,73.10
2017-10-11T17:46:42.110Z,73.00
2017-10-11T17:49:09.716Z,73.70
2017-10-11T17:51:36.518Z,72.60
2017-10-11T17:54:05.307Z,72.60
2017-10-11T17:56:32.504Z,72.60
2017-10-11T17:58:58.874Z,72.60
2017-10-11T18:01:25.356Z,73.50
2017-10-11T18:03:53.297Z,72.50
2017-10-11T18:06:20.165Z,72.50
2017-10-11T18:08:46.484Z,71.40
2017-10-11T18:11:13.872Z,71.20
2017-10-11T18:13:40.744Z,71.20
2017-10-11T18:16:07.029Z,71.00
2017-10-11T18:18:33.305Z,70.70
2017-10-11T18:20:59.532Z,70.60
2017-10-11T18:23:25.777Z,71.50
2017-10-11T18:25:52.026Z,71.00
2017-10-11T18:28:19.392Z,71.10
2017-10-11T18:30:45.713Z,71.10
2017-10-11T18:33:12.030Z,71.00
2017-10-11T18:35:39.000Z,71.30
2017-10-11T18:38:05.265Z,72.00
2017-10-11T18:40:31.864Z,71.10
2017-10-11T18:42:59.126Z,71.20
2017-10-11T18:45:25.677Z,71.40
2017-10-11T18:47:52.007Z,73.30
2017-10-11T18:50:18.363Z,72.80
2017-10-11T18:52:44.626Z,72.20
2017-10-11T18:55:10.942Z,72.50
2017-10-11T18:57:37.961Z,72.60
2017-10-11T19:00:04.825Z,72.10
2017-10-11T19:02:31.729Z,73.20
2017-10-11T19:04:58.216Z,73.10
2017-10-11T19:07:25.245Z,71.80
2017-10-11T19:09:52.498Z,71.70
2017-10-11T19:12:19.897Z,73.40
2017-10-11T19:14:47.259Z,73.20
2017-10-11T19:17:14.548Z,72.40
2017-10-11T19:19:41.101Z,72.00
2017-10-11T19:22:08.128Z,72.10
2017-10-11T19:24:34.391Z,72.00
2017-10-11T19:27:02.083Z,72.70
2017-10-11T19:29:29.005Z,72.60
2017-10-11T19:31:55.995Z,71.90
2017-10-11T19:34:22.244Z,71.90
2017-10-11T19:36:49.511Z,71.20
2017-10-11T19:39:16.354Z,71.40
2017-10-11T19:41:42.933Z,72.10
2017-10-11T19:44:10.643Z,74.70
2017-10-11T19:46:36.898Z,74.70
2017-10-11T19:49:03.844Z,74.80
2017-10-11T19:51:31.161Z,74.50
2017-10-11T19:53:58.216Z,75.60
2017-10-11T19:56:24.586Z,76.30
2017-10-11T19:58:52.289Z,74.80
2017-10-11T20:01:18.644Z,75.10
2017-10-11T20:03:45.510Z,74.30
2017-10-11T20:06:12.609Z,74.30
2017-10-11T20:08:39.457Z,74.20
2017-10-11T20:11:05.693Z,74.10
2017-10-11T20:13:31.911Z,74.50
2017-10-11T20:15:58.387Z,73.80
2017-10-11T20:18:26.051Z,73.90
2017-10-11T20:20:53.537Z,74.80
2017-10-11T20:23:19.852Z,74.80
2017-10-11T20:25:46.147Z,74.80
2017-10-11T20:28:12.499Z,74.30
2017-10-11T20:30:39.888Z,75.10
2017-10-11T20:33:06.888Z,75.10
2017-10-11T20:35:35.311Z,74.90
2017-10-11T20:38:01.561Z,74.90
2017-10-11T20:40:27.854Z,74.30
2017-10-11T20:42:54.077Z,73.50
2017-10-11T20:45:20.290Z,75.00
2017-10-11T20:47:47.322Z,74.10
2017-10-11T20:50:14.402Z,74.00
2017-10-11T20:52:41.241Z,74.30
2017-10-11T20:55:08.411Z,74.40
2017-10-11T20:57:35.285Z,74.80
2017-10-11T21:00:02.354Z,73.30
2017-10-11T21:02:30.029Z,73.90
2017-10-11T21:04:57.580Z,73.20
2017-10-11T21:07:25.415Z,73.90
2017-10-11T21:09:53.390Z,73.10
2017-10-11T21:12:20.122Z,73.10
2017-10-11T21:14:46.899Z,73.40
2017-10-11T21:17:14.197Z,73.50
2017-10-11T21:19:41.292Z,74.10
2017-10-11T21:22:08.899Z,74.70
2017-10-11T21:24:36.875Z,74.70
2017-10-11T21:27:03.136Z,75.50
2017-10-11T21:29:29.978Z,75.60
2017-10-11T21:31:57.698Z,76.10
2017-10-11T21:34:23.937Z,77.50
2017-10-11T21:36:50.176Z,76.80
2017-10-11T21:39:16.918Z,77.90
2017-10-11T21:41:43.131Z,77.70
2017-10-11T21:44:11.044Z,75.90
2017-10-11T21:46:38.340Z,76.10
2017-10-11T21:49:04.706Z,76.10
2017-10-11T21:51:30.938Z,75.30
2017-10-11T21:53:57.674Z,75.10
2017-10-11T21:56:24.242Z,75.20
2017-10-11T21:58:51.297Z,74.50
2017-10-11T22:01:19.469Z,74.60
2017-10-11T22:03:48.354Z,74.30
2017-10-11T22:06:17.159Z,74.50
2017-10-11T22:08:43.366Z,74.40
2017-10-11T22:11:10.366Z,75.40
2017-10-11T22:13:37.136Z,75.40
2017-10-11T22:16:03.771Z,74.30
2017-10-11T22:18:31.399Z,74.30
2017-10-11T22:20:57.826Z,74.30
2017-10-11T22:23:24.830Z,75.00
2017-10-11T22:25:52.163Z,75.00
2017-10-11T22:28:19.199Z,76.30
2017-10-11T22:30:45.957Z,76.30
2017-10-11T22:33:12.576Z,77.00
2017-10-11T22:35:38.820Z,77.10
2017-10-11T22:38:05.179Z,76.50
2017-10-11T22:40:32.811Z,76.40
2017-10-11T22:42:59.966Z,76.60
2017-10-11T22:45:26.953Z,75.80
2017-10-11T22:47:53.175Z,75.70
2017-10-11T22:50:19.422Z,75.80
2017-10-11T22:52:45.664Z,78.40
2017-10-11T22:55:11.850Z,77.30
2017-10-11T22:57:38.698Z,77.70
2017-10-11T23:00:05.470Z,77.60
2017-10-11T23:02:33.151Z,77.70
2017-10-11T23:05:00.182Z,77.50
2017-10-11T23:07:26.979Z,77.50
2017-10-11T23:09:54.183Z,77.60
2017-10-11T23:12:20.629Z,78.00
2017-10-11T23:14:47.599Z,78.70
2017-10-11T23:17:15.558Z,77.40
2017-10-11T23:19:42.551Z,76.70
2017-10-11T23:22:09.391Z,76.70
2017-10-11T23:24:35.606Z,76.50
2017-10-11T23:27:02.754Z,76.60
2017-10-11T23:29:29.495Z,75.80
2017-10-11T23:31:56.237Z,75.90
2017-10-11T23:34:22.536Z,75.70
2017-10-11T23:36:49.981Z,75.50
2017-10-11T23:39:17.915Z,75.30
2017-10-11T23:41:44.111Z,75.30
2017-10-11T23:44:10.906Z,77.50
2017-10-11T23:46:38.562Z,78.90
2017-10-11T23:49:05.453Z,78.90
2017-10-11T23:51:32.324Z,78.00
2017-10-11T23:53:58.967Z,76.20
2017-10-11T23:56:26.154Z,76.00
2017-10-11T23:58:54.174Z,75.80
